createdAt,value
2018-07-09T00:00:38.562Z,990.84
2018-07-09T00:01:38.767Z,990.82
2018-07-09T00:02:38.963Z,990.82
2018-07-09T00:03:39.155Z,990.84
2018-07-09T00:04:39.366Z,990.83
2018-07-09T00:05:39.565Z,990.81
2018-07-09T00:06:39.752Z,990.82
2018-07-09T00:07:39.957Z,990.85
2018-07-09T00:08:40.161Z,990.79
2018-07-09T00:09:40.377Z,990.80
2018-07-09T00:10:40.574Z,990.83
2018-07-09T00:11:40.784Z,990.86
2018-07-09T00:12:40.973Z,990.84
2018-07-09T00:13:41.164Z,990.83
2018-07-09T00:14:41.372Z,990.80
2018-07-09T00:15:41.575Z,990.78
2018-07-09T00:16:41.792Z,990.78
2018-07-09T00:17:41.993Z,990.79
2018-07-09T00:18:42.181Z,990.82
2018-07-09T00:19:42.373Z,990.81
2018-07-09T00:20:42.605Z,990.81
2018-07-09T00:21:42.809Z,990.77
2018-07-09T00:22:43.001Z,990.76
2018-07-09T00:23:43.183Z,990.79
2018-07-09T00:24:43.396Z,990.80
2018-07-09T00:25:43.589Z,990.79
2018-07-09T00:26:43.786Z,990.77
2018-07-09T00:27:43.975Z,990.78
2018-07-09T00:28:44.163Z,990.79
2018-07-09T00:29:44.358Z,990.79
2018-07-09T00:30:44.561Z,990.78
2018-07-09T00:31:44.777Z,990.75
2018-07-09T00:32:44.977Z,990.77
2018-07-09T00:33:45.223Z,990.80
2018-07-09T00:34:45.400Z,990.78
2018-07-09T00:35:45.603Z,990.75
2018-07-09T00:36:45.807Z,990.75
2018-07-09T00:37:46.013Z,990.73
2018-07-09T00:38:46.231Z,990.72
2018-07-09T00:41:18.058Z,990.69
2018-07-09T00:42:18.238Z,990.69
2018-07-09T00:43:18.441Z,990.67
2018-07-09T00:44:18.632Z,990.69
2018-07-09T00:45:18.834Z,990.76
2018-07-09T00:46:19.041Z,990.70
2018-07-09T00:47:19.258Z,990.72
2018-07-09T00:48:19.452Z,990.73
2018-07-09T00:49:19.673Z,990.75
2018-07-09T00:50:19.876Z,990.74
2018-07-09T00:52:51.693Z,990.74
2018-07-09T00:53:51.872Z,990.74
2018-07-09T00:54:52.088Z,990.72
2018-07-09T00:55:52.276Z,990.71
2018-07-09T00:56:52.477Z,990.73
2018-07-09T00:57:52.663Z,990.70
2018-07-09T00:58:52.875Z,990.70
2018-07-09T00:59:53.077Z,990.71
2018-07-09T01:00:53.276Z,990.69
2018-07-09T01:01:53.470Z,990.73
2018-07-09T01:02:53.658Z,990.70
2018-07-09T01:03:53.848Z,990.67
2018-07-09T01:04:54.052Z,990.66
2018-07-09T01:05:54.253Z,990.69
2018-07-09T01:06:54.504Z,990.63
2018-07-09T01:07:54.693Z,990.63
2018-07-09T01:08:54.897Z,990.65
2018-07-09T01:09:55.084Z,990.68
2018-07-09T01:10:55.285Z,990.64
2018-07-09T01:11:55.479Z,990.64
2018-07-09T01:12:55.675Z,990.70
2018-07-09T01:13:55.886Z,990.65
2018-07-09T01:14:56.097Z,990.62
2018-07-09T01:15:56.302Z,990.62
2018-07-09T01:16:56.514Z,990.63
2018-07-09T01:17:56.723Z,990.60
2018-07-09T01:18:56.928Z,990.62
2018-07-09T01:19:57.123Z,990.59
2018-07-09T01:20:57.313Z,990.55
2018-07-09T01:21:57.512Z,990.57
2018-07-09T01:22:57.714Z,990.58
2018-07-09T01:23:57.918Z,990.57
2018-07-09T01:24:58.126Z,990.59
2018-07-09T01:25:58.319Z,990.60
2018-07-09T01:26:58.520Z,990.59
2018-07-09T01:27:58.729Z,990.55
2018-07-09T01:28:59.043Z,990.60
2018-07-09T01:29:59.120Z,990.56
2018-07-09T01:30:59.311Z,990.57
2018-07-09T01:31:59.516Z,990.57
2018-07-09T01:32:59.720Z,990.60
2018-07-09T01:33:59.936Z,990.59
2018-07-09T01:35:00.144Z,990.56
2018-07-09T01:37:31.975Z,990.57
2018-07-09T01:38:32.145Z,990.55
2018-07-09T01:39:32.344Z,990.52
2018-07-09T01:40:32.554Z,990.53
2018-07-09T01:41:32.770Z,990.53
2018-07-09T01:42:32.960Z,990.50
2018-07-09T01:43:33.144Z,990.50
2018-07-09T01:44:33.348Z,990.49
2018-07-09T01:45:33.548Z,990.45
2018-07-09T01:46:33.740Z,990.47
2018-07-09T01:47:33.925Z,990.45
2018-07-09T01:48:34.110Z,990.39
2018-07-09T01:49:34.308Z,990.42
2018-07-09T01:50:34.502Z,990.44
2018-07-09T01:51:34.709Z,990.42
2018-07-09T01:52:34.922Z,990.41
2018-07-09T01:53:35.105Z,990.44
2018-07-09T01:54:35.311Z,990.45
2018-07-09T01:55:35.507Z,990.46
2018-07-09T01:56:35.705Z,990.43
2018-07-09T01:57:35.913Z,990.45
2018-07-09T01:58:36.121Z,990.48
2018-07-09T01:59:36.305Z,990.50
2018-07-09T02:00:36.491Z,990.49
2018-07-09T02:01:36.689Z,990.51
2018-07-09T02:02:36.883Z,990.54
2018-07-09T02:03:37.082Z,990.55
2018-07-09T02:04:37.273Z,990.58
2018-07-09T02:05:37.461Z,990.54
2018-07-09T02:06:37.674Z,990.54
2018-07-09T02:07:37.869Z,990.55
2018-07-09T02:08:38.080Z,990.56
2018-07-09T02:09:38.264Z,990.54
2018-07-09T02:10:38.465Z,990.54
2018-07-09T02:11:38.668Z,990.54
2018-07-09T02:12:38.873Z,990.56
2018-07-09T02:13:39.061Z,990.58
2018-07-09T02:14:39.265Z,990.55
2018-07-09T02:15:39.471Z,990.56
2018-07-09T02:16:39.670Z,990.55
2018-07-09T02:17:39.885Z,990.58
2018-07-09T02:18:40.094Z,990.54
2018-07-09T02:19:40.299Z,990.56
2018-07-09T02:20:40.509Z,990.56
2018-07-09T02:21:40.687Z,990.56
2018-07-09T02:22:40.893Z,990.55
2018-07-09T02:23:41.100Z,990.55
2018-07-09T02:24:41.281Z,990.58
2018-07-09T02:25:41.473Z,990.56
2018-07-09T02:26:41.675Z,990.58
2018-07-09T02:27:41.855Z,990.61
2018-07-09T02:28:42.054Z,990.59
2018-07-09T02:29:42.237Z,990.60
2018-07-09T02:30:42.451Z,990.61
2018-07-09T02:31:42.635Z,990.61
2018-07-09T02:32:42.836Z,990.65
2018-07-09T02:33:43.023Z,990.60
2018-07-09T02:34:43.238Z,990.64
2018-07-09T02:35:43.451Z,990.64
2018-07-09T02:36:43.631Z,990.65
2018-07-09T02:37:43.833Z,990.63
2018-07-09T02:38:44.048Z,990.61
2018-07-09T02:39:44.233Z,990.59
2018-07-09T02:42:16.359Z,990.56
2018-07-09T02:43:16.533Z,990.53
2018-07-09T02:44:16.712Z,990.56
2018-07-09T02:45:16.905Z,990.50
2018-07-09T02:46:17.113Z,990.51
2018-07-09T02:47:17.298Z,990.50
2018-07-09T02:48:17.484Z,990.48
2018-07-09T02:49:17.749Z,990.51
2018-07-09T02:50:17.872Z,990.48
2018-07-09T02:51:18.062Z,990.49
2018-07-09T02:52:18.256Z,990.52
2018-07-09T02:53:18.454Z,990.54
2018-07-09T02:54:18.652Z,990.61
2018-07-09T02:55:18.854Z,990.57
2018-07-09T02:56:19.046Z,990.57
2018-07-09T02:57:19.253Z,990.58
2018-07-09T02:58:19.478Z,990.57
2018-07-09T02:59:19.671Z,990.57
2018-07-09T03:00:19.854Z,990.59
2018-07-09T03:01:20.049Z,990.57
2018-07-09T03:02:20.251Z,990.61
2018-07-09T03:03:20.450Z,990.63
2018-07-09T03:04:20.657Z,990.63
2018-07-09T03:05:20.851Z,990.66
2018-07-09T03:06:21.051Z,990.68
2018-07-09T03:07:21.245Z,990.68
2018-07-09T03:08:21.433Z,990.70
2018-07-09T03:09:21.635Z,990.65
2018-07-09T03:10:21.815Z,990.67
2018-07-09T03:11:22.027Z,990.68
2018-07-09T03:12:22.209Z,990.64
2018-07-09T03:13:22.402Z,990.65
2018-07-09T03:14:22.609Z,990.72
2018-07-09T03:15:22.793Z,990.70
2018-07-09T03:16:22.984Z,990.66
2018-07-09T03:17:23.184Z,990.71
2018-07-09T03:18:23.394Z,990.72
2018-07-09T03:19:23.601Z,990.74
2018-07-09T03:20:23.795Z,990.71
2018-07-09T03:21:23.994Z,990.76
2018-07-09T03:22:24.195Z,990.80
2018-07-09T03:23:24.401Z,990.78
2018-07-09T03:24:24.589Z,990.75
2018-07-09T03:25:24.764Z,990.76
2018-07-09T03:26:24.957Z,990.74
2018-07-09T03:27:25.149Z,990.74
2018-07-09T03:28:25.351Z,990.74
2018-07-09T03:29:25.550Z,990.74
2018-07-09T03:30:25.747Z,990.73
2018-07-09T03:31:25.932Z,990.71
2018-07-09T03:32:26.137Z,990.68
2018-07-09T03:33:26.328Z,990.67
2018-07-09T03:34:26.519Z,990.64
2018-07-09T03:35:26.723Z,990.63
2018-07-09T03:36:26.936Z,990.65
2018-07-09T03:37:27.122Z,990.65
2018-07-09T03:38:27.323Z,990.65
2018-07-09T03:39:27.524Z,990.65
2018-07-09T03:40:27.721Z,990.69
2018-07-09T03:41:27.925Z,990.68
2018-07-09T03:42:28.140Z,990.66
2018-07-09T03:43:28.325Z,990.63
2018-07-09T03:44:28.511Z,990.66
2018-07-09T03:45:28.704Z,990.70
2018-07-09T03:46:28.908Z,990.71
2018-07-09T03:47:29.126Z,990.69
2018-07-09T03:48:29.328Z,990.68
2018-07-09T03:49:29.520Z,990.71
2018-07-09T03:50:29.727Z,990.68
2018-07-09T03:51:29.919Z,990.67
2018-07-09T03:52:30.114Z,990.69
2018-07-09T03:53:30.325Z,990.69
2018-07-09T03:54:30.535Z,990.70
2018-07-09T03:55:30.727Z,990.71
2018-07-09T03:56:30.915Z,990.74
2018-07-09T03:57:31.124Z,990.73
2018-07-09T04:00:03.256Z,990.77
2018-07-09T04:01:03.425Z,990.77
2018-07-09T04:02:03.617Z,990.78
2018-07-09T04:03:03.805Z,990.78
2018-07-09T04:04:04.006Z,990.78
2018-07-09T04:05:04.215Z,990.77
2018-07-09T04:06:04.428Z,990.80
2018-07-09T04:07:04.639Z,990.79
2018-07-09T04:08:04.835Z,990.80
2018-07-09T04:09:05.025Z,990.81
2018-07-09T04:10:05.227Z,990.85
2018-07-09T04:11:05.427Z,990.84
2018-07-09T04:12:05.612Z,990.89
2018-07-09T04:13:05.821Z,990.87
2018-07-09T04:14:06.007Z,990.90
2018-07-09T04:15:06.195Z,990.89
2018-07-09T04:16:06.385Z,990.86
2018-07-09T04:17:06.589Z,990.83
2018-07-09T04:18:06.765Z,990.90
2018-07-09T04:19:06.956Z,991.00
2018-07-09T04:20:07.255Z,991.07
2018-07-09T04:21:07.319Z,991.10
2018-07-09T04:22:07.514Z,991.09
2018-07-09T04:23:07.718Z,991.07
2018-07-09T04:24:07.912Z,991.08
2018-07-09T04:25:08.105Z,991.08
2018-07-09T04:26:08.293Z,991.15
2018-07-09T04:27:08.484Z,991.12
2018-07-09T04:28:08.701Z,991.11
2018-07-09T04:29:08.902Z,991.08
2018-07-09T04:30:09.089Z,991.06
2018-07-09T04:32:41.289Z,991.09
2018-07-09T04:33:41.462Z,991.03
2018-07-09T04:34:41.658Z,991.09
2018-07-09T04:35:41.846Z,991.14
2018-07-09T04:36:42.028Z,991.14
2018-07-09T04:37:42.223Z,991.17
2018-07-09T04:38:42.409Z,991.15
2018-07-09T04:39:42.619Z,991.24
2018-07-09T04:40:42.812Z,991.15
2018-07-09T04:41:43.028Z,991.06
2018-07-09T04:42:43.211Z,991.05
2018-07-09T04:43:43.507Z,991.01
2018-07-09T04:44:43.591Z,991.02
2018-07-09T04:45:43.799Z,991.02
2018-07-09T04:46:44.003Z,991.05
2018-07-09T04:47:44.189Z,991.19
2018-07-09T04:48:44.374Z,991.24
2018-07-09T04:49:44.573Z,991.34
2018-07-09T04:50:44.790Z,991.17
2018-07-09T04:51:44.999Z,991.12
2018-07-09T04:52:45.200Z,991.17
2018-07-09T04:53:45.385Z,991.17
2018-07-09T04:54:45.642Z,991.60
2018-07-09T04:55:45.704Z,992.00
2018-07-09T04:56:45.915Z,991.94
2018-07-09T04:57:46.102Z,992.39
2018-07-09T04:58:46.305Z,992.82
2018-07-09T04:59:46.516Z,993.69
2018-07-09T05:00:46.706Z,994.18
2018-07-09T05:01:46.905Z,994.73
2018-07-09T05:02:47.110Z,995.55
2018-07-09T05:03:47.300Z,996.42
2018-07-09T05:04:47.533Z,997.04
2018-07-09T05:05:47.731Z,996.33
2018-07-09T05:06:47.935Z,994.77
2018-07-09T05:07:48.151Z,993.60
2018-07-09T05:08:48.342Z,993.13
2018-07-09T05:09:48.546Z,992.97
2018-07-09T05:10:48.728Z,992.50
2018-07-09T05:11:48.920Z,992.19
2018-07-09T05:12:49.111Z,992.41
2018-07-09T05:13:49.316Z,992.44
2018-07-09T05:14:49.524Z,992.29
2018-07-09T05:15:49.741Z,992.30
2018-07-09T05:16:49.958Z,992.23
2018-07-09T05:17:50.144Z,992.17
2018-07-09T05:18:50.349Z,992.16
2018-07-09T05:19:50.529Z,992.11
2018-07-09T05:20:50.748Z,992.12
2018-07-09T05:21:50.945Z,992.12
2018-07-09T05:22:51.187Z,992.05
2018-07-09T05:23:51.360Z,992.02
2018-07-09T05:24:51.572Z,992.02
2018-07-09T05:25:51.764Z,991.95
2018-07-09T05:26:51.955Z,991.93
2018-07-09T05:27:52.165Z,991.82
2018-07-09T05:28:52.362Z,991.95
2018-07-09T05:29:52.566Z,991.92
2018-07-09T05:30:52.883Z,991.93
2018-07-09T05:31:52.951Z,991.92
2018-07-09T05:32:53.144Z,991.90
2018-07-09T05:33:53.355Z,991.84
2018-07-09T05:34:53.556Z,991.89
2018-07-09T05:35:53.751Z,991.93
2018-07-09T05:36:53.945Z,991.89
2018-07-09T05:37:54.168Z,991.94
2018-07-09T05:38:54.375Z,991.94
2018-07-09T05:39:54.636Z,991.99
2018-07-09T05:40:54.791Z,992.04
2018-07-09T05:41:54.980Z,991.95
2018-07-09T05:42:55.190Z,991.78
2018-07-09T05:43:55.395Z,991.76
2018-07-09T05:44:55.608Z,991.91
2018-07-09T05:45:55.818Z,991.89
2018-07-09T05:46:56.032Z,992.01
2018-07-09T05:47:56.223Z,992.07
2018-07-09T05:48:56.435Z,992.05
2018-07-09T05:49:56.651Z,992.08
2018-07-09T05:50:56.852Z,992.12
2018-07-09T05:51:57.043Z,992.08
2018-07-09T05:52:57.356Z,992.09
2018-07-09T05:53:57.453Z,992.11
2018-07-09T05:56:29.600Z,992.10
2018-07-09T05:57:29.781Z,992.05
2018-07-09T05:58:29.992Z,992.02
2018-07-09T05:59:30.181Z,991.98
2018-07-09T06:00:30.377Z,991.91
2018-07-09T06:01:30.593Z,991.93
2018-07-09T06:02:30.842Z,991.94
2018-07-09T06:03:31.064Z,991.99
2018-07-09T06:04:31.295Z,992.16
2018-07-09T06:05:31.560Z,992.23
2018-07-09T06:06:31.703Z,992.27
2018-07-09T06:07:31.929Z,992.27
2018-07-09T06:08:32.124Z,992.31
2018-07-09T06:09:32.314Z,992.38
2018-07-09T06:10:32.522Z,992.44
2018-07-09T06:11:32.817Z,992.45
2018-07-09T06:12:32.959Z,992.48
2018-07-09T06:13:33.228Z,992.52
2018-07-09T06:14:33.394Z,992.49
2018-07-09T06:15:33.632Z,992.48
2018-07-09T06:16:33.830Z,992.55
2018-07-09T06:17:34.025Z,992.53
2018-07-09T06:18:34.234Z,992.53
2018-07-09T06:19:34.459Z,992.51
2018-07-09T06:20:34.650Z,992.45
2018-07-09T06:21:34.908Z,992.51
2018-07-09T06:22:35.103Z,992.48
2018-07-09T06:23:35.317Z,992.46
2018-07-09T06:24:35.522Z,992.48
2018-07-09T06:25:35.727Z,992.47
2018-07-09T06:26:35.921Z,992.44
2018-07-09T06:27:36.138Z,992.41
2018-07-09T06:28:36.343Z,992.44
2018-07-09T06:29:36.551Z,992.10
2018-07-09T06:32:08.891Z,992.04
2018-07-09T06:33:08.952Z,991.92
2018-07-09T06:34:09.161Z,992.09
2018-07-09T06:35:09.364Z,992.31
2018-07-09T06:36:09.572Z,992.37
2018-07-09T06:37:09.770Z,992.38
2018-07-09T06:38:09.969Z,991.97
2018-07-09T06:39:10.178Z,991.90
2018-07-09T06:40:10.388Z,991.93
2018-07-09T06:41:10.618Z,991.65
2018-07-09T06:42:10.825Z,991.62
2018-07-09T06:43:11.054Z,991.49
2018-07-09T06:44:11.274Z,991.36
2018-07-09T06:45:11.493Z,991.39
2018-07-09T06:46:11.685Z,991.35
2018-07-09T06:47:11.896Z,991.32
2018-07-09T06:48:12.112Z,991.45
2018-07-09T06:49:12.320Z,991.53
2018-07-09T06:50:12.511Z,991.48
2018-07-09T06:51:12.713Z,991.90
2018-07-09T06:52:12.929Z,992.51
2018-07-09T06:53:13.119Z,992.56
2018-07-09T06:54:13.343Z,992.53
2018-07-09T06:55:13.558Z,992.35
2018-07-09T06:56:13.765Z,992.15
2018-07-09T06:57:13.988Z,991.55
2018-07-09T06:58:14.202Z,991.45
2018-07-09T06:59:14.411Z,991.47
2018-07-09T07:00:14.625Z,992.20
2018-07-09T07:01:14.825Z,992.41
2018-07-09T07:02:15.096Z,992.42
2018-07-09T07:03:15.249Z,992.51
2018-07-09T07:04:15.451Z,992.58
2018-07-09T07:05:15.665Z,992.57
2018-07-09T07:06:15.873Z,992.60
2018-07-09T07:07:16.083Z,992.58
2018-07-09T07:08:16.289Z,992.55
2018-07-09T07:09:16.697Z,992.53
2018-07-09T07:10:16.734Z,992.49
2018-07-09T07:11:16.938Z,992.43
2018-07-09T07:12:17.149Z,992.46
2018-07-09T07:13:17.367Z,992.40
2018-07-09T07:14:17.629Z,992.40
2018-07-09T07:15:17.774Z,992.35
2018-07-09T07:16:17.982Z,992.36
2018-07-09T07:17:18.203Z,992.44
2018-07-09T07:18:18.400Z,992.36
2018-07-09T07:19:18.596Z,992.32
2018-07-09T07:20:18.794Z,992.31
2018-07-09T07:21:19.007Z,992.30
2018-07-09T07:22:19.224Z,992.25
2018-07-09T07:23:19.438Z,992.30
2018-07-09T07:25:51.604Z,992.25
2018-07-09T07:26:51.798Z,992.17
2018-07-09T07:27:52.002Z,992.18
2018-07-09T07:28:52.207Z,992.16
2018-07-09T07:29:52.411Z,992.15
2018-07-09T07:30:52.611Z,992.12
2018-07-09T07:31:52.807Z,992.13
2018-07-09T07:32:53.063Z,992.08
2018-07-09T07:33:53.239Z,992.06
2018-07-09T07:34:53.454Z,992.04
2018-07-09T07:35:53.661Z,992.08
2018-07-09T07:36:53.874Z,992.04
2018-07-09T07:37:54.095Z,992.10
2018-07-09T07:38:54.286Z,992.02
2018-07-09T07:39:54.488Z,992.04
2018-07-09T07:40:54.708Z,991.99
2018-07-09T07:41:54.920Z,991.95
2018-07-09T07:42:55.117Z,991.97
2018-07-09T07:45:27.282Z,991.92
2018-07-09T07:46:27.468Z,991.87
2018-07-09T07:47:27.680Z,991.83
2018-07-09T07:48:27.900Z,991.85
2018-07-09T07:49:28.111Z,991.81
2018-07-09T07:50:28.368Z,991.87
2018-07-09T07:51:28.514Z,991.84
2018-07-09T07:52:28.742Z,991.82
2018-07-09T07:53:28.948Z,991.91
2018-07-09T07:54:29.164Z,991.92
2018-07-09T07:55:29.376Z,991.90
2018-07-09T07:56:29.580Z,991.88
2018-07-09T07:57:29.806Z,991.89
2018-07-09T07:58:30.026Z,991.90
2018-07-09T07:59:30.228Z,991.93
2018-07-09T08:00:30.454Z,991.96
2018-07-09T08:01:30.669Z,991.94
2018-07-09T08:02:30.865Z,991.89
2018-07-09T08:03:31.090Z,991.93
2018-07-09T08:04:31.303Z,991.93
2018-07-09T08:05:31.525Z,991.91
2018-07-09T08:06:31.737Z,991.92
2018-07-09T08:07:31.959Z,991.85
2018-07-09T08:08:32.178Z,991.87
2018-07-09T08:09:32.563Z,991.87
2018-07-09T08:10:32.594Z,991.85
2018-07-09T08:13:27.172Z,991.82
2018-07-09T08:13:33.258Z,991.84
2018-07-09T08:14:33.465Z,991.87
2018-07-09T08:15:33.712Z,991.85
2018-07-09T08:16:33.883Z,991.85
2018-07-09T08:17:34.085Z,991.85
2018-07-09T08:18:34.291Z,991.83
2018-07-09T08:19:34.487Z,991.84
2018-07-09T08:20:34.688Z,991.85
2018-07-09T08:21:34.908Z,991.87
2018-07-09T08:22:35.135Z,991.89
2018-07-09T08:23:35.352Z,991.88
2018-07-09T08:24:35.577Z,991.92
2018-07-09T08:25:35.883Z,991.86
2018-07-09T08:26:35.997Z,991.86
2018-07-09T08:27:36.210Z,991.87
2018-07-09T08:28:36.432Z,991.83
2018-07-09T08:29:36.650Z,991.82
2018-07-09T08:30:36.863Z,991.79
2018-07-09T08:31:37.079Z,991.81
2018-07-09T08:32:37.308Z,991.86
2018-07-09T08:33:37.518Z,991.85
2018-07-09T08:34:37.756Z,991.83
2018-07-09T08:35:37.965Z,991.84
2018-07-09T08:36:38.173Z,991.85
2018-07-09T08:37:38.407Z,991.82
2018-07-09T08:38:38.619Z,991.86
2018-07-09T08:39:38.822Z,991.85
2018-07-09T08:40:39.018Z,991.88
2018-07-09T08:41:39.242Z,991.85
2018-07-09T08:42:39.489Z,991.87
2018-07-09T08:43:39.708Z,991.90
2018-07-09T08:44:39.914Z,991.87
2018-07-09T08:45:40.112Z,991.88
2018-07-09T08:48:12.492Z,991.90
2018-07-09T08:49:12.673Z,991.89
2018-07-09T08:50:12.899Z,991.91
2018-07-09T08:51:13.124Z,991.82
2018-07-09T08:52:13.339Z,991.91
2018-07-09T08:53:13.550Z,991.88
2018-07-09T08:54:13.742Z,991.87
2018-07-09T08:55:13.983Z,991.92
2018-07-09T08:56:14.176Z,991.93
2018-07-09T08:57:14.376Z,991.93
2018-07-09T08:58:14.587Z,992.00
2018-07-09T08:59:14.806Z,991.99
2018-07-09T09:00:15.033Z,991.94
2018-07-09T09:01:15.245Z,991.92
2018-07-09T09:02:15.449Z,991.90
2018-07-09T09:03:15.667Z,991.90
2018-07-09T09:04:15.891Z,991.96
2018-07-09T09:05:16.106Z,991.97
2018-07-09T09:06:16.327Z,991.92
2018-07-09T09:07:16.517Z,991.99
2018-07-09T09:08:16.737Z,991.94
2018-07-09T09:09:16.948Z,991.92
2018-07-09T09:10:17.185Z,992.00
2018-07-09T09:11:17.377Z,991.99
2018-07-09T09:12:17.644Z,991.97
2018-07-09T09:13:17.859Z,991.98
2018-07-09T09:14:18.092Z,991.93
2018-07-09T09:15:18.302Z,991.97
2018-07-09T09:16:18.521Z,991.99
2018-07-09T09:17:18.739Z,992.03
2018-07-09T09:18:18.956Z,992.02
2018-07-09T09:19:19.165Z,992.05
2018-07-09T09:20:19.387Z,992.00
2018-07-09T09:21:19.591Z,992.09
2018-07-09T09:22:19.822Z,992.10
2018-07-09T09:23:20.046Z,992.16
2018-07-09T09:24:20.253Z,992.16
2018-07-09T09:25:20.445Z,992.17
2018-07-09T09:26:20.658Z,992.17
2018-07-09T09:27:20.880Z,992.24
2018-07-09T09:28:21.113Z,992.26
2018-07-09T09:29:21.338Z,992.26
2018-07-09T09:30:21.547Z,992.33
2018-07-09T09:31:21.881Z,992.34
2018-07-09T09:32:21.985Z,992.38
2018-07-09T09:33:22.186Z,992.37
2018-07-09T09:34:22.386Z,992.42
2018-07-09T09:35:22.591Z,992.54
2018-07-09T09:36:22.818Z,992.60
2018-07-09T09:37:23.058Z,992.61
2018-07-09T09:38:23.265Z,992.55
2018-07-09T09:39:23.492Z,992.47
2018-07-09T09:41:55.350Z,991.46
2018-07-09T09:42:55.537Z,991.46
2018-07-09T09:43:55.742Z,991.38
2018-07-09T09:44:55.941Z,991.31
2018-07-09T09:45:56.177Z,991.39
2018-07-09T09:46:56.374Z,991.31
2018-07-09T09:47:56.583Z,991.29
2018-07-09T09:48:56.799Z,991.29
2018-07-09T09:49:57.031Z,991.28
2018-07-09T09:50:57.227Z,991.28
2018-07-09T09:51:57.516Z,991.21
2018-07-09T09:52:57.595Z,991.18
2018-07-09T09:53:57.816Z,991.24
2018-07-09T09:54:58.082Z,991.21
2018-07-09T09:55:58.255Z,991.25
2018-07-09T09:56:58.451Z,991.17
2018-07-09T09:57:58.651Z,991.22
2018-07-09T09:58:58.876Z,991.17
2018-07-09T09:59:59.098Z,991.17
2018-07-09T10:00:59.331Z,991.14
2018-07-09T10:03:31.504Z,991.14
2018-07-09T10:04:31.690Z,991.15
2018-07-09T10:05:31.899Z,991.10
2018-07-09T10:06:32.127Z,991.10
2018-07-09T10:07:32.329Z,990.93
2018-07-09T10:08:32.526Z,991.02
2018-07-09T10:09:32.823Z,991.05
2018-07-09T10:10:32.909Z,991.00
2018-07-09T10:11:33.102Z,991.06
2018-07-09T10:12:33.309Z,990.95
2018-07-09T10:13:33.523Z,991.01
2018-07-09T10:14:33.741Z,990.97
2018-07-09T10:15:33.947Z,991.00
2018-07-09T10:16:34.154Z,991.01
2018-07-09T10:17:34.368Z,990.93
2018-07-09T10:18:34.571Z,991.03
2018-07-09T10:19:34.787Z,990.98
2018-07-09T10:20:35.001Z,990.92
2018-07-09T10:21:35.218Z,991.04
2018-07-09T10:22:35.414Z,990.95
2018-07-09T10:23:35.695Z,991.01
2018-07-09T10:24:35.842Z,990.89
2018-07-09T10:25:36.058Z,990.90
2018-07-09T10:26:36.254Z,990.91
2018-07-09T10:27:36.471Z,990.94
2018-07-09T10:28:36.693Z,990.90
2018-07-09T10:29:36.910Z,990.87
2018-07-09T10:30:37.100Z,990.86
2018-07-09T10:31:37.333Z,990.82
2018-07-09T10:32:37.541Z,990.75
2018-07-09T10:33:37.758Z,990.73
2018-07-09T10:34:37.974Z,990.64
2018-07-09T10:35:38.190Z,990.61
2018-07-09T10:38:10.522Z,990.51
2018-07-09T10:39:10.699Z,990.50
2018-07-09T10:40:10.911Z,990.34
2018-07-09T10:41:11.112Z,990.27
2018-07-09T10:42:11.316Z,990.30
2018-07-09T10:43:11.528Z,990.27
2018-07-09T10:44:11.742Z,990.16
2018-07-09T10:45:11.958Z,990.22
2018-07-09T10:47:44.130Z,990.14
2018-07-09T10:48:44.306Z,990.05
2018-07-09T10:49:44.514Z,990.06
2018-07-09T10:50:44.714Z,990.09
2018-07-09T10:51:44.923Z,990.05
2018-07-09T10:52:45.114Z,990.08
2018-07-09T10:53:45.324Z,990.03
2018-07-09T10:54:45.532Z,990.01
2018-07-09T10:55:45.748Z,989.91
2018-07-09T10:56:45.953Z,989.96
2018-07-09T10:57:46.168Z,989.99
2018-07-09T10:58:46.364Z,989.97
2018-07-09T10:59:46.575Z,990.01
2018-07-09T11:00:46.868Z,989.99
2018-07-09T11:01:46.998Z,989.97
2018-07-09T11:02:47.215Z,990.00
2018-07-09T11:03:47.472Z,989.95
2018-07-09T11:04:47.551Z,989.95
2018-07-09T11:05:47.765Z,989.96
2018-07-09T11:06:47.973Z,990.03
2018-07-09T11:07:48.187Z,989.98
2018-07-09T11:08:48.384Z,989.91
2018-07-09T11:09:48.612Z,989.96
2018-07-09T11:10:48.806Z,989.88
2018-07-09T11:11:49.033Z,989.86
2018-07-09T11:12:49.242Z,989.88
2018-07-09T11:13:49.447Z,989.90
2018-07-09T11:16:21.733Z,989.91
2018-07-09T11:17:21.854Z,989.89
2018-07-09T11:18:22.062Z,989.90
2018-07-09T11:19:22.285Z,989.80
2018-07-09T11:20:22.487Z,989.86
2018-07-09T11:21:22.711Z,989.80
2018-07-09T11:22:22.925Z,989.74
2018-07-09T11:23:23.139Z,989.77
2018-07-09T11:24:23.344Z,989.79
2018-07-09T11:25:23.554Z,989.76
2018-07-09T11:26:23.755Z,989.82
2018-07-09T11:27:23.966Z,989.82
2018-07-09T11:28:24.154Z,989.77
2018-07-09T11:29:24.372Z,989.74
2018-07-09T11:30:24.588Z,989.77
2018-07-09T11:31:24.794Z,989.76
2018-07-09T11:32:25.001Z,989.76
2018-07-09T11:33:25.221Z,989.78
2018-07-09T11:34:25.443Z,989.77
2018-07-09T11:35:25.639Z,989.72
2018-07-09T11:36:25.937Z,989.73
2018-07-09T11:37:26.047Z,989.75
2018-07-09T11:38:26.245Z,989.78
2018-07-09T11:39:26.435Z,989.73
2018-07-09T11:40:26.651Z,989.80
2018-07-09T11:41:26.844Z,989.85
2018-07-09T11:42:27.035Z,989.82
2018-07-09T11:43:27.297Z,989.73
2018-07-09T11:44:27.375Z,989.70
2018-07-09T11:45:27.575Z,989.74
2018-07-09T11:46:27.789Z,989.70
2018-07-09T11:47:27.995Z,989.69
2018-07-09T11:48:28.198Z,989.83
2018-07-09T11:49:28.429Z,989.71
2018-07-09T11:50:28.639Z,989.76
2018-07-09T11:51:28.835Z,989.72
2018-07-09T11:52:29.060Z,989.74
2018-07-09T11:53:29.269Z,989.77
2018-07-09T11:54:29.471Z,989.71
2018-07-09T11:55:29.690Z,989.72
2018-07-09T11:56:29.911Z,989.65
2018-07-09T11:57:30.121Z,989.64
2018-07-09T11:58:30.389Z,989.56
2018-07-09T11:59:30.525Z,989.60
2018-07-09T12:00:30.737Z,989.55
2018-07-09T12:01:30.953Z,989.50
2018-07-09T12:02:31.170Z,989.52
2018-07-09T12:03:31.389Z,989.55
2018-07-09T12:04:31.585Z,989.56
2018-07-09T12:05:31.787Z,989.60
2018-07-09T12:06:31.994Z,989.65
2018-07-09T12:07:32.205Z,989.68
2018-07-09T12:08:32.394Z,989.59
2018-07-09T12:09:32.595Z,989.47
2018-07-09T12:10:32.794Z,989.67
2018-07-09T12:11:33.009Z,989.60
2018-07-09T12:12:33.217Z,989.58
2018-07-09T12:13:33.426Z,989.56
2018-07-09T12:14:33.644Z,989.52
2018-07-09T12:15:33.851Z,989.51
2018-07-09T12:16:34.073Z,989.44
2018-07-09T12:17:34.286Z,989.53
2018-07-09T12:18:34.474Z,989.31
2018-07-09T12:19:34.695Z,989.49
2018-07-09T12:20:34.904Z,989.51
2018-07-09T12:21:35.153Z,989.49
2018-07-09T12:22:35.315Z,989.47
2018-07-09T12:23:35.517Z,989.49
2018-07-09T12:24:35.715Z,989.48
2018-07-09T12:25:35.922Z,989.51
2018-07-09T12:26:36.126Z,989.52
2018-07-09T12:27:36.335Z,989.54
2018-07-09T12:28:36.544Z,989.51
2018-07-09T12:29:36.767Z,989.50
2018-07-09T12:30:36.985Z,989.57
2018-07-09T12:31:37.206Z,989.52
2018-07-09T12:32:37.420Z,989.45
2018-07-09T12:33:37.607Z,989.48
2018-07-09T12:34:37.825Z,989.50
2018-07-09T12:35:38.044Z,989.45
2018-07-09T12:36:38.247Z,989.46
2018-07-09T12:37:38.462Z,989.47
2018-07-09T12:38:38.657Z,989.51
2018-07-09T12:41:10.493Z,989.53
2018-07-09T12:42:10.674Z,989.57
2018-07-09T12:43:10.859Z,989.57
2018-07-09T12:44:11.078Z,989.61
2018-07-09T12:45:11.277Z,989.47
2018-07-09T12:47:43.438Z,989.50
2018-07-09T12:48:43.615Z,989.40
2018-07-09T12:49:43.854Z,989.31
2018-07-09T12:50:44.041Z,989.37
2018-07-09T12:51:44.236Z,989.41
2018-07-09T12:52:44.445Z,989.39
2018-07-09T12:53:44.643Z,989.45
2018-07-09T12:54:44.844Z,989.38
2018-07-09T12:55:45.076Z,989.50
2018-07-09T12:56:45.259Z,989.51
2018-07-09T12:57:45.511Z,989.49
2018-07-09T12:58:45.714Z,989.44
2018-07-09T12:59:45.916Z,989.38